Time;durP1;ratioP1;P1;durP2;ratioP2;P2;SDS_P1;SDS_P2;PMS_P1;PMS_P2;Temp;Humidity;BMP_temperature;BMP_pressure;BME280_temperature;BME280_humidity;BME280_pressure;Samples;Min_cycle;Max_cycle;Signal;HPM_P1;HPM_P2
2021/09/06 00:01:45;;;;;;;2.80;1.20;;;;;;;10.01;83.68;100797.16;6271284;28;20053;-83
2021/09/06 00:04:46;;;;;;;3.67;1.17;;;;;;;9.98;83.74;100794.66;6271123;28;20495;-83
2021/09/06 00:07:47;;;;;;;1.92;1.23;;;;;;;10.04;82.41;100792.59;6254702;28;20048;-82
2021/09/06 00:11:00;;;;;;;2.10;1.08;;;;;;;10.01;83.39;100792.75;6238134;28;20041;-83
2021/09/06 00:14:01;;;;;;;2.95;1.33;;;;;;;9.96;83.67;100797.34;6271139;28;20045;-83
2021/09/06 00:17:02;;;;;;;1.33;0.90;;;;;;;9.95;83.59;100792.22;6270768;28;20040;-83
2021/09/06 00:20:03;;;;;;;2.53;1.40;;;;;;;9.91;84.05;100790.66;6253699;28;20503;-83
2021/09/06 00:23:05;;;;;;;1.55;1.02;;;;;;;9.86;85.09;100783.91;6253953;28;20069;-84
2021/09/06 00:26:06;;;;;;;3.00;1.20;;;;;;;9.82;85.98;100797.13;6270452;28;20053;-84
2021/09/06 00:29:06;;;;;;;2.85;1.00;;;;;;;9.81;84.61;100798.91;6270456;28;20051;-83
2021/09/06 00:32:07;;;;;;;2.80;1.08;;;;;;;9.75;84.64;100791.34;6237654;28;20061;-83
2021/09/06 00:35:09;;;;;;;2.38;1.30;;;;;;;9.71;85.85;100802.84;6237677;28;20052;-83
2021/09/06 00:38:10;;;;;;;1.48;0.95;;;;;;;9.73;86.03;100805.38;6270508;28;20041;-83
2021/09/06 00:41:11;;;;;;;4.07;1.38;;;;;;;9.69;85.62;100799.44;6255847;28;20442;-82
2021/09/06 00:44:11;;;;;;;4.47;1.13;;;;;;;9.56;87.05;100798.34;6245745;28;20049;-82
2021/09/06 00:47:12;;;;;;;2.22;1.00;;;;;;;9.54;87.02;100795.78;6245610;28;20040;-82
2021/09/06 00:50:15;;;;;;;3.40;1.27;;;;;;;9.40;88.03;100795.56;6261976;28;20112;-83
2021/09/06 00:53:16;;;;;;;;;;;;;;;9.32;89.27;100801.09;6278469;28;20066;-83
2021/09/06 00:56:16;;;;;;;5.15;1.40;;;;;;;9.17;90.90;100802.63;6296115;28;19928;-84
2021/09/06 00:59:18;;;;;;;3.10;1.10;;;;;;;9.06;92.97;100804.84;6245146;28;20068;-82
2021/09/06 01:02:18;;;;;;;1.65;1.23;;;;;;;8.87;95.41;100796.94;6278204;28;20134;-82
2021/09/06 01:05:19;;;;;;;5.05;1.50;;;;;;;8.80;95.79;100793.75;6245508;28;20044;-81
2021/09/06 01:08:20;;;;;;;5.53;1.60;;;;;;;8.67;96.81;100798.63;6294676;28;20041;-84
2021/09/06 01:11:21;;;;;;;2.10;1.25;;;;;;;8.58;98.65;100803.34;6277536;28;20040;-82
2021/09/06 01:14:22;;;;;;;4.80;1.48;;;;;;;8.47;99.76;100802.03;6277597;28;20410;-84
2021/09/06 01:17:24;;;;;;;2.40;1.50;;;;;;;8.35;100.00;100804.25;6245079;28;20099;-82
2021/09/06 01:20:24;;;;;;;2.85;1.33;;;;;;;8.27;100.00;100810.59;6261775;28;20041;-82
2021/09/06 01:23:25;;;;;;;2.58;1.48;;;;;;;8.26;100.00;100805.47;6244426;28;20053;-83
2021/09/06 01:26:26;;;;;;;1.77;1.20;;;;;;;8.17;100.00;100805.81;6244568;28;20567;-83
2021/09/06 01:29:27;;;;;;;3.03;1.40;;;;;;;8.08;100.00;100807.03;6244248;28;20463;-83
2021/09/06 01:32:28;;;;;;;2.83;1.40;;;;;;;8.14;100.00;100804.19;6260595;28;20047;-82
2021/09/06 01:35:28;;;;;;;3.83;1.55;;;;;;;8.12;100.00;100805.16;6244623;28;20040;-82
2021/09/06 01:38:32;;;;;;;2.40;1.30;;;;;;;8.12;100.00;100805.16;6277602;28;20049;-82
2021/09/06 01:41:34;;;;;;;1.75;1.30;;;;;;;8.07;100.00;100803.59;6261476;28;20549;-81
2021/09/06 01:44:35;;;;;;;2.00;1.25;;;;;;;8.04;100.00;100805.47;6295405;28;20685;-82
2021/09/06 01:47:36;;;;;;;3.22;1.50;;;;;;;7.98;100.00;100800.50;6277744;28;20119;-82
2021/09/06 01:50:36;;;;;;;2.95;1.35;;;;;;;8.04;100.00;100805.47;6261231;28;20050;-82
2021/09/06 01:53:37;;;;;;;2.53;1.30;;;;;;;8.12;100.00;100811.22;6244517;28;20479;-83
2021/09/06 01:56:38;;;;;;;2.78;1.17;;;;;;;8.12;100.00;100815.56;6277376;28;20337;-83
2021/09/06 01:59:39;;;;;;;2.65;1.30;;;;;;;8.07;100.00;100810.53;6277010;28;20550;-83
2021/09/06 02:02:40;;;;;;;3.03;1.73;;;;;;;8.10;100.00;100815.63;6260512;28;20497;-83
2021/09/06 02:05:41;;;;;;;2.28;1.40;;;;;;;8.10;100.00;100809.59;6244337;28;20051;-83
2021/09/06 02:08:42;;;;;;;2.67;1.40;;;;;;;8.14;100.00;100811.16;6244108;28;20044;-83
2021/09/06 02:11:43;;;;;;;3.05;1.48;;;;;;;8.05;100.00;100815.81;6244083;28;20045;-84
2021/09/06 02:14:43;;;;;;;6.80;1.55;;;;;;;8.03;100.00;100809.81;6260602;28;20165;-84
2021/09/06 02:17:44;;;;;;;1.88;1.30;;;;;;;8.14;100.00;100818.94;6277306;28;20045;-82
2021/09/06 02:20:45;;;;;;;2.00;1.48;;;;;;;8.17;100.00;100818.81;6244207;28;20041;-83
2021/09/06 02:23:47;;;;;;;1.70;1.33;;;;;;;8.16;99.84;100814.53;6244250;28;20098;-82
2021/09/06 02:26:50;;;;;;;2.08;1.15;;;;;;;8.22;100.00;100815.16;6260735;28;20562;-83
2021/09/06 02:29:51;;;;;;;2.13;1.02;;;;;;;8.31;99.31;100816.53;6276395;28;20514;-83
2021/09/06 02:32:52;;;;;;;2.58;1.35;;;;;;;8.31;98.91;100818.28;6260221;28;20041;-83
2021/09/06 02:35:53;;;;;;;2.25;1.27;;;;;;;8.37;98.87;100812.84;6277016;28;20399;-83
2021/09/06 02:38:54;;;;;;;3.13;1.20;;;;;;;8.42;97.47;100814.41;6243867;28;20033;-84
2021/09/06 02:41:58;;;;;;;2.25;1.55;;;;;;;8.43;96.64;100813.47;6245810;28;20135;-82
2021/09/06 02:44:59;;;;;;;5.07;1.10;;;;;;;8.50;96.74;100821.03;6281600;28;20036;-81
2021/09/06 02:48:00;;;;;;;1.63;1.10;;;;;;;8.46;96.10;100813.38;6248828;28;20036;-82
2021/09/06 02:51:00;;;;;;;1.73;1.00;;;;;;;8.49;95.43;100812.38;6264387;28;20497;-83
2021/09/06 02:54:01;;;;;;;2.47;1.20;;;;;;;8.53;95.14;100811.34;6281216;28;20045;-83
2021/09/06 02:57:03;;;;;;;3.15;1.48;;;;;;;8.55;94.96;100804.34;6264484;28;20040;-82
2021/09/06 03:00:04;;;;;;;2.40;1.07;;;;;;;8.61;93.20;100813.66;6281573;28;20054;-82
2021/09/06 03:03:08;;;;;;;2.83;1.10;;;;;;;8.64;92.71;100813.53;6281458;28;20178;-82
2021/09/06 03:06:09;;;;;;;2.00;1.35;;;;;;;8.61;92.68;100811.91;6247599;28;20529;-84
2021/09/06 03:09:10;;;;;;;3.15;1.20;;;;;;;8.61;92.19;100811.06;6280803;28;20033;-84
2021/09/06 03:12:11;;;;;;;3.15;1.23;;;;;;;8.71;90.71;100820.19;6263736;28;20036;-84
2021/09/06 03:15:12;;;;;;;6.55;1.40;;;;;;;8.68;90.59;100823.72;6247688;28;20040;-84
2021/09/06 03:18:13;;;;;;;2.47;1.45;;;;;;;8.72;91.90;100823.63;6280582;28;20047;-82
2021/09/06 03:21:14;;;;;;;5.68;1.30;;;;;;;8.75;90.16;100820.88;6296941;28;20127;-85
2021/09/06 03:24:15;;;;;;;3.92;1.70;;;;;;;8.70;89.81;100809.81;6263585;28;20036;-82
2021/09/06 03:27:16;;;;;;;1.30;1.13;;;;;;;8.75;89.58;100813.06;6231242;28;20068;-83
2021/09/06 03:30:17;;;;;;;1.70;1.10;;;;;;;8.79;88.44;100817.25;6263916;28;20094;-82
2021/09/06 03:33:18;;;;;;;9.00;1.45;;;;;;;8.72;88.81;100808.84;6263488;28;20127;-82
2021/09/06 03:36:20;;;;;;;2.13;1.25;;;;;;;8.83;88.11;100821.41;6263786;28;20399;-82
2021/09/06 03:39:21;;;;;;;3.10;1.50;;;;;;;8.75;88.13;100800.06;6280258;28;20056;-82
2021/09/06 03:42:21;;;;;;;2.70;1.30;;;;;;;8.79;88.12;100818.09;6279856;28;20053;-82
2021/09/06 03:45:22;;;;;;;2.85;1.33;;;;;;;8.80;87.64;100817.19;6279784;28;20044;-84
2021/09/06 03:48:23;;;;;;;4.53;1.55;;;;;;;8.81;87.69;100825.81;6263040;28;20075;-84
2021/09/06 03:51:24;;;;;;;2.63;1.23;;;;;;;8.80;87.25;100830.19;6279302;28;20036;-82
2021/09/06 03:54:25;;;;;;;19.67;1.60;;;;;;;8.74;88.19;100827.00;6278553;28;20116;-81
2021/09/06 03:57:25;;;;;;;3.75;1.38;;;;;;;8.70;88.90;100834.09;6263173;28;20037;-80
2021/09/06 04:00:26;;;;;;;2.53;1.45;;;;;;;8.65;89.45;100830.84;6279753;28;20119;-82
2021/09/06 04:03:27;;;;;;;2.80;1.20;;;;;;;8.61;89.38;100824.06;6279640;28;20056;-82
2021/09/06 04:06:28;;;;;;;4.18;1.65;;;;;;;8.65;89.98;100825.63;6263249;28;20041;-82
2021/09/06 04:09:29;;;;;;;1.80;1.40;;;;;;;8.60;89.44;100833.59;6279329;28;20037;-83
2021/09/06 04:12:30;;;;;;;2.23;1.30;;;;;;;8.61;89.50;100835.31;6263179;28;20036;-82
2021/09/06 04:15:31;;;;;;;2.40;1.17;;;;;;;8.59;90.01;100826.72;6262838;28;20071;-81
2021/09/06 04:18:32;;;;;;;1.67;1.05;;;;;;;8.63;88.95;100833.50;6278937;28;20064;-83
2021/09/06 04:21:32;;;;;;;2.75;1.23;;;;;;;8.63;90.79;100838.69;6262698;28;20124;-80
2021/09/06 04:24:33;;;;;;;6.57;1.40;;;;;;;8.64;88.91;100835.16;6245916;28;20139;-83
2021/09/06 04:27:34;;;;;;;4.05;1.52;;;;;;;8.69;88.01;100837.59;6245543;28;20131;-84
2021/09/06 04:30:35;;;;;;;2.50;1.30;;;;;;;8.78;88.15;100836.38;6278594;28;20040;-81
2021/09/06 04:33:36;;;;;;;2.35;1.20;;;;;;;8.77;88.21;100842.47;6278754;28;20040;-82
2021/09/06 04:36:37;;;;;;;5.13;1.67;;;;;;;8.79;88.57;100854.53;6261848;28;20047;-79
2021/09/06 04:39:38;;;;;;;4.75;1.42;;;;;;;8.80;87.79;100847.56;6278413;28;20051;-80
2021/09/06 04:42:38;;;;;;;2.33;1.40;;;;;;;8.83;87.23;100861.31;6261625;28;20289;-83
2021/09/06 04:45:40;;;;;;;3.80;1.30;;;;;;;8.83;87.28;100850.91;6278067;28;20505;-83
2021/09/06 04:48:41;;;;;;;3.40;1.20;;;;;;;8.90;87.24;100861.91;6294780;28;20069;-85
2021/09/06 04:51:42;;;;;;;2.88;1.40;;;;;;;8.92;86.06;100854.88;6295801;28;20497;-84
2021/09/06 04:54:42;;;;;;;1.55;1.20;;;;;;;9.00;86.13;100859.78;6261367;28;20047;-85
2021/09/06 04:57:43;;;;;;;2.38;1.48;;;;;;;9.06;85.73;100860.34;6245319;28;20460;-82
2021/09/06 05:00:44;;;;;;;4.82;1.30;;;;;;;9.13;85.73;100866.16;6277849;28;20475;-85
2021/09/06 05:03:45;;;;;;;3.72;1.48;;;;;;;9.19;85.08;100860.69;6269021;28;20101;-86
2021/09/06 05:06:46;;;;;;;4.95;1.45;;;;;;;9.28;83.53;100865.47;6269530;28;20046;-85
2021/09/06 05:09:46;;;;;;;3.55;1.25;;;;;;;9.35;84.49;100863.47;6286043;28;20036;-86
2021/09/06 05:12:47;;;;;;;4.22;1.60;;;;;;;9.48;83.71;100867.22;6285828;28;20122;-85
2021/09/06 05:15:48;;;;;;;2.50;1.45;;;;;;;9.49;83.22;100860.25;6302913;28;20047;-86
2021/09/06 05:18:49;;;;;;;4.30;1.30;;;;;;;9.64;82.96;100871.78;6301846;28;20169;-85
2021/09/06 05:21:49;;;;;;;2.85;1.10;;;;;;;9.76;81.35;100876.47;6277410;28;20399;-83
2021/09/06 05:24:54;;;;;;;4.45;1.58;;;;;;;9.91;80.08;100880.13;6277687;28;20455;-82
2021/09/06 05:27:59;;;;;;;4.00;1.52;;;;;;;9.96;79.34;100880.75;6270186;28;20559;-85
2021/09/06 05:31:03;;;;;;;2.95;1.58;;;;;;;10.09;78.92;100881.91;6269049;28;20130;-84
2021/09/06 05:34:03;;;;;;;5.82;1.50;;;;;;;10.19;78.68;100881.47;6302375;28;20489;-83
2021/09/06 05:37:04;;;;;;;5.65;1.55;;;;;;;10.32;77.27;100884.41;6269345;28;20051;-81
2021/09/06 05:40:05;;;;;;;3.15;1.45;;;;;;;10.42;77.08;100883.91;6302456;28;20072;-86
2021/09/06 05:43:06;;;;;;;6.28;1.70;;;;;;;10.55;76.83;100886.78;6283837;28;20060;-84
2021/09/06 05:46:07;;;;;;;4.30;1.52;;;;;;;10.66;77.10;100886.25;6269323;28;20123;-83
2021/09/06 05:49:08;;;;;;;6.35;1.80;;;;;;;10.72;76.75;100883.34;6285639;28;20544;-84
2021/09/06 05:52:08;;;;;;;4.90;1.63;;;;;;;10.84;75.60;100884.53;6269281;28;20089;-82
2021/09/06 05:55:10;;;;;;;3.03;1.60;;;;;;;10.97;75.10;100888.19;6284349;28;20402;-85
2021/09/06 05:58:11;;;;;;;4.73;1.83;;;;;;;11.04;74.05;100899.22;6302065;28;20040;-84
2021/09/06 06:01:11;;;;;;;3.53;1.80;;;;;;;11.15;74.73;100896.06;6286110;28;20670;-83
2021/09/06 06:04:12;;;;;;;5.65;2.03;;;;;;;11.25;75.53;100897.28;6287074;28;20066;-83
2021/09/06 06:07:13;;;;;;;3.90;1.92;;;;;;;11.38;75.13;100892.28;6270273;28;20032;-80
2021/09/06 06:10:14;;;;;;;4.10;1.58;;;;;;;11.41;74.83;100895.59;6303053;28;20055;-84
2021/09/06 06:13:15;;;;;;;5.35;1.80;;;;;;;11.57;75.84;100892.19;6269804;28;20097;-82
2021/09/06 06:16:16;;;;;;;7.40;2.10;;;;;;;11.65;74.82;100897.84;6302105;28;20508;-83
2021/09/06 06:19:17;;;;;;;4.97;1.77;;;;;;;11.73;74.78;100889.63;6305426;28;20044;-80
2021/09/06 06:22:18;;;;;;;4.10;1.83;;;;;;;11.86;74.40;100886.28;6306397;28;20097;-83
2021/09/06 06:25:19;;;;;;;7.57;2.05;;;;;;;12.04;74.90;100883.63;6324442;28;20401;-82
2021/09/06 06:28:20;;;;;;;4.57;2.30;;;;;;;12.17;74.78;100883.81;6306863;28;20043;-82
2021/09/06 06:31:21;;;;;;;4.35;2.22;;;;;;;12.26;72.84;100888.53;6272618;28;20565;-81
2021/09/06 06:34:21;;;;;;;6.05;2.00;;;;;;;12.40;74.92;100900.88;6306472;28;20067;-84
2021/09/06 06:37:22;;;;;;;3.67;2.17;;;;;;;12.52;73.79;100894.09;6289491;28;20036;-82
2021/09/06 06:40:23;;;;;;;3.78;2.28;;;;;;;12.69;72.13;100902.72;6273207;28;20479;-81
2021/09/06 06:43:24;;;;;;;3.50;2.03;;;;;;;12.79;73.18;100903.03;6272619;28;20222;-83
2021/09/06 06:46:24;;;;;;;3.90;2.00;;;;;;;13.04;76.64;100906.88;6289264;28;20449;-82
2021/09/06 06:49:27;;;;;;;4.80;2.15;;;;;;;13.17;72.13;100913.06;6290168;28;20071;-81
2021/09/06 06:52:27;;;;;;;4.22;2.08;;;;;;;13.23;71.89;100914.50;6286358;28;20040;-83
2021/09/06 06:55:28;;;;;;;5.78;2.42;;;;;;;13.35;69.70;100915.59;6289083;28;20040;-82
2021/09/06 06:58:29;;;;;;;2.92;2.25;;;;;;;13.38;70.76;100920.66;6288987;28;20040;-85
2021/09/06 07:01:30;;;;;;;4.93;2.33;;;;;;;13.44;69.55;100910.63;6267917;28;20052;-83
2021/09/06 07:04:31;;;;;;;4.45;2.30;;;;;;;13.59;68.78;100911.53;6280455;28;20047;-83
2021/09/06 07:07:32;;;;;;;3.42;2.08;;;;;;;13.76;69.20;100925.41;6263831;28;20037;-82
2021/09/06 07:10:33;;;;;;;5.88;2.65;;;;;;;13.90;68.23;100922.78;6281163;28;20037;-84
2021/09/06 07:13:34;;;;;;;4.60;2.08;;;;;;;13.99;67.20;100927.44;6296234;28;20036;-84
2021/09/06 07:16:37;;;;;;;5.68;2.40;;;;;;;14.09;68.08;100930.38;6280279;28;20040;-83
2021/09/06 07:19:38;;;;;;;2.17;1.83;;;;;;;14.25;69.05;100931.09;6263611;28;20155;-85
2021/09/06 07:22:39;;;;;;;4.32;2.47;;;;;;;14.51;69.30;100928.59;6279990;28;20093;-85
2021/09/06 07:25:43;;;;;;;5.50;2.50;;;;;;;14.56;66.53;100933.59;6280177;28;20040;-83
2021/09/06 07:28:44;;;;;;;6.30;2.85;;;;;;;14.65;68.28;100914.63;6296377;28;20040;-84
2021/09/06 07:31:45;;;;;;;3.55;2.35;;;;;;;14.85;66.63;100929.94;6263739;28;20047;-83
2021/09/06 07:34:45;;;;;;;4.65;2.47;;;;;;;15.12;68.84;100931.69;6263612;28;20499;-82
2021/09/06 07:37:46;;;;;;;4.88;2.97;;;;;;;15.21;66.72;100931.06;6279767;28;20075;-84
2021/09/06 07:40:47;;;;;;;4.03;2.72;;;;;;;15.40;66.68;100935.09;6264210;28;20040;-82
2021/09/06 07:43:48;;;;;;;10.82;2.70;;;;;;;15.51;64.21;100932.59;6280435;28;20067;-84
2021/09/06 07:46:50;;;;;;;6.30;2.70;;;;;;;15.67;65.63;100940.31;6280300;28;20036;-84
2021/09/06 07:49:51;;;;;;;4.35;2.83;;;;;;;15.80;64.38;100932.44;6279918;28;20040;-83
2021/09/06 07:52:53;;;;;;;5.90;2.63;;;;;;;15.91;64.14;100943.06;6280174;28;20494;-81
2021/09/06 07:55:53;;;;;;;4.88;2.30;;;;;;;15.83;63.09;100938.31;6279987;28;20648;-83
2021/09/06 07:58:54;;;;;;;6.07;2.78;;;;;;;16.10;66.31;100946.09;6263221;28;20078;-85
2021/09/06 08:01:56;;;;;;;4.75;2.85;;;;;;;16.27;62.31;100942.28;6262728;28;20115;-85
2021/09/06 08:04:56;;;;;;;7.97;2.83;;;;;;;16.56;63.99;100946.41;6296146;28;20068;-84
2021/09/06 08:07:57;;;;;;;4.57;2.67;;;;;;;16.81;63.16;100953.41;6295398;28;20093;-83
2021/09/06 08:10:58;;;;;;;3.10;2.70;;;;;;;16.84;61.24;100948.78;6279433;28;20053;-83
2021/09/06 08:13:59;;;;;;;6.15;2.50;;;;;;;16.85;61.31;100953.06;6279683;28;20072;-82
2021/09/06 08:17:01;;;;;;;4.30;2.70;;;;;;;17.08;63.11;100956.66;6279975;28;20075;-83
2021/09/06 08:20:04;;;;;;;5.78;3.00;;;;;;;17.17;60.15;100949.00;6278692;28;20151;-82
2021/09/06 08:23:06;;;;;;;7.43;2.83;;;;;;;17.28;60.40;100967.53;6297488;28;20057;-83
2021/09/06 08:26:07;;;;;;;5.40;2.75;;;;;;;17.30;59.69;100957.69;6262919;28;20434;-82
2021/09/06 08:29:09;;;;;;;5.97;2.65;;;;;;;17.59;60.14;100957.31;6287038;28;20284;-85
2021/09/06 08:32:10;;;;;;;4.70;3.00;;;;;;;17.79;60.63;100958.38;6287299;28;20036;-85
2021/09/06 08:35:12;;;;;;;5.90;3.30;;;;;;;17.81;59.00;100965.25;6283347;28;20040;-84
2021/09/06 08:38:13;;;;;;;7.30;2.92;;;;;;;17.89;56.10;100959.38;6262694;28;20041;-83
2021/09/06 08:41:14;;;;;;;6.55;2.90;;;;;;;17.96;59.23;100957.97;6279240;28;20078;-86
2021/09/06 08:44:16;;;;;;;6.50;2.90;;;;;;;18.41;60.18;100957.09;6262459;28;20044;-86
2021/09/06 08:47:17;;;;;;;5.23;3.27;;;;;;;18.32;57.47;100966.59;6278229;28;20041;-85
2021/09/06 08:50:17;;;;;;;4.10;2.80;;;;;;;18.65;57.88;100964.88;6261368;28;20760;-85
2021/09/06 08:53:18;;;;;;;7.05;2.90;;;;;;;18.71;55.04;100959.09;6246271;28;20079;-83
2021/09/06 08:56:21;;;;;;;5.00;3.08;;;;;;;18.83;55.26;100957.28;6279258;28;20044;-84
2021/09/06 08:59:22;;;;;;;6.20;2.97;;;;;;;19.08;55.68;100961.41;6294814;28;20044;-85
2021/09/06 09:02:23;;;;;;;5.77;2.90;;;;;;;19.29;54.67;100964.06;6262387;28;20055;-85
2021/09/06 09:05:24;;;;;;;6.20;3.22;;;;;;;19.50;56.50;100958.81;6277910;28;20040;-85
2021/09/06 09:08:25;;;;;;;6.07;3.58;;;;;;;19.37;55.01;100958.13;6277568;28;20047;-84
2021/09/06 09:11:25;;;;;;;4.50;3.20;;;;;;;19.52;52.87;100952.41;6244791;28;20249;-84
2021/09/06 09:14:26;;;;;;;11.98;3.28;;;;;;;19.38;54.33;100951.91;6277617;28;20289;-84
2021/09/06 09:17:27;;;;;;;5.77;3.40;;;;;;;19.73;55.26;100955.06;6295477;28;20041;-85
2021/09/06 09:20:42;;;;;;;5.07;3.30;;;;;;;19.69;53.36;100958.06;6262113;28;20044;-83
2021/09/06 09:23:45;;;;;;;6.93;3.75;;;;;;;19.81;51.76;100958.84;6245855;28;20044;-84
2021/09/06 09:26:57;;;;;;;6.07;3.35;;;;;;;19.90;51.56;100943.00;6278832;28;20546;-85
2021/09/06 09:29:59;;;;;;;6.13;3.17;;;;;;;19.92;52.84;100949.00;6280917;28;20572;-85
2021/09/06 09:33:08;;;;;;;5.80;3.47;;;;;;;20.21;52.08;100958.88;6322477;28;20403;-84
2021/09/06 09:36:09;;;;;;;5.13;3.47;;;;;;;20.33;51.83;100956.97;6321981;28;20059;-85
2021/09/06 09:39:16;;;;;;;6.30;3.57;;;;;;;20.46;50.45;100946.13;6268530;28;20510;-88
2021/09/06 09:42:17;;;;;;;6.43;3.58;;;;;;;20.30;50.34;100949.28;6320067;28;20135;-86
2021/09/06 09:45:23;;;;;;;5.80;3.70;;;;;;;20.54;49.40;100948.94;6303630;28;20089;-86
2021/09/06 09:48:24;;;;;;;7.68;3.20;;;;;;;20.72;49.14;100943.84;6303435;28;20047;-84
2021/09/06 09:51:25;;;;;;;5.33;3.17;;;;;;;20.72;47.83;100946.50;6272665;28;20145;-84
2021/09/06 09:54:26;;;;;;;9.18;3.22;;;;;;;21.00;46.34;100942.19;6275520;28;20371;-85
2021/09/06 09:57:27;;;;;;;6.80;2.90;;;;;;;20.96;48.30;100943.44;6295312;28;20040;-87
2021/09/06 10:00:27;;;;;;;5.77;3.03;;;;;;;21.41;47.53;100934.03;6283363;28;20045;-85
2021/09/06 10:03:33;;;;;;;5.87;3.30;;;;;;;21.40;52.83;100933.19;6267173;28;20453;-85
2021/09/06 10:06:36;;;;;;;6.32;3.28;;;;;;;21.44;45.33;100933.78;6251284;28;20445;-84
2021/09/06 10:09:44;;;;;;;4.85;2.70;;;;;;;21.67;47.94;100929.81;6283649;28;20567;-85
2021/09/06 10:13:00;;;;;;;4.35;2.75;;;;;;;21.66;44.83;100940.56;6266275;28;20032;-84
2021/09/06 10:16:01;;;;;;;6.25;2.97;;;;;;;21.73;40.03;100928.41;6282249;28;20044;-84
2021/09/06 10:19:07;;;;;;;4.22;2.97;;;;;;;21.60;43.21;100930.53;6266690;28;20070;-83
2021/09/06 10:22:23;;;;;;;7.30;2.95;;;;;;;21.61;41.68;100930.38;6283592;28;20044;-85
2021/09/06 10:25:29;;;;;;;6.35;3.40;;;;;;;21.42;41.70;100925.09;6282310;28;20380;-86
2021/09/06 10:28:31;;;;;;;6.68;2.92;;;;;;;21.39;44.54;100926.19;6281415;28;20429;-86
2021/09/06 10:31:32;;;;;;;5.15;3.03;;;;;;;21.56;45.58;100931.78;6281076;28;20097;-85
2021/09/06 10:34:33;;;;;;;3.93;2.60;;;;;;;21.92;43.64;100928.31;6281538;28;20049;-88
2021/09/06 10:37:37;;;;;;;4.77;3.17;;;;;;;22.08;40.83;100926.88;6266097;28;20076;-83
2021/09/06 10:40:40;;;;;;;6.63;2.90;;;;;;;22.11;41.43;100932.72;6249111;28;20505;-85
2021/09/06 10:43:47;;;;;;;7.18;3.35;;;;;;;22.29;38.99;100926.63;6299732;28;20055;-85
2021/09/06 10:47:04;;;;;;;5.35;2.80;;;;;;;22.26;40.73;100940.25;6289644;28;20133;-83
2021/09/06 10:50:18;;;;;;;9.55;3.30;;;;;;;22.74;42.66;100939.09;6281654;28;20446;-87
2021/09/06 10:53:23;;;;;;;3.92;2.55;;;;;;;23.00;42.35;100936.50;6282502;28;20048;-85
2021/09/06 10:56:29;;;;;;;5.22;2.80;;;;;;;22.83;38.43;100930.19;6265605;28;20407;-85
2021/09/06 10:59:30;;;;;;;6.60;2.92;;;;;;;22.97;37.84;100920.00;6283046;28;20048;-87
2021/09/06 11:02:31;;;;;;;4.83;2.40;;;;;;;22.86;35.81;100923.75;6280776;28;20136;-86
2021/09/06 11:05:32;;;;;;;4.40;2.75;;;;;;;22.83;39.25;100924.03;6263867;28;20115;-83
2021/09/06 11:08:35;;;;;;;5.40;2.63;;;;;;;22.96;41.19;100927.16;6299443;28;20040;-86
2021/09/06 11:11:36;;;;;;;3.92;2.72;;;;;;;23.02;39.41;100929.25;6298209;28;20096;-85
2021/09/06 11:14:41;;;;;;;3.57;2.60;;;;;;;23.32;39.19;100921.81;6272163;28;20040;-85
2021/09/06 11:17:42;;;;;;;5.35;2.60;;;;;;;23.29;35.75;100920.28;6306232;28;20044;-86
2021/09/06 11:20:48;;;;;;;4.70;2.43;;;;;;;23.00;34.99;100928.53;6306647;28;20089;-84
2021/09/06 11:23:50;;;;;;;3.35;2.33;;;;;;;22.66;35.00;100917.72;6289962;28;20444;-85
2021/09/06 11:26:52;;;;;;;3.55;2.30;;;;;;;22.83;35.53;100919.53;6323723;28;20044;-85
2021/09/06 11:29:52;;;;;;;5.85;2.63;;;;;;;23.00;37.39;100922.34;6290385;28;20167;-85
2021/09/06 11:32:53;;;;;;;5.63;2.63;;;;;;;23.38;36.84;100915.03;6306415;28;20379;-86
2021/09/06 11:35:54;;;;;;;5.77;2.90;;;;;;;23.10;34.91;100920.47;6273454;28;20406;-85
2021/09/06 11:38:55;;;;;;;5.07;2.80;;;;;;;22.98;34.98;100916.34;6273051;28;20040;-85
2021/09/06 11:41:57;;;;;;;4.75;2.60;;;;;;;23.05;32.30;100918.28;6288060;28;20036;-86
2021/09/06 11:45:00;;;;;;;5.80;2.60;;;;;;;22.87;33.63;100928.06;6287957;28;20043;-85
2021/09/06 11:48:04;;;;;;;3.42;2.42;;;;;;;22.83;35.55;100916.06;6321156;28;20046;-87
2021/09/06 11:51:10;;;;;;;7.82;2.78;;;;;;;22.91;36.61;100913.47;6322233;28;20050;-86
2021/09/06 11:54:19;;;;;;;4.35;2.88;;;;;;;23.09;35.49;100908.16;6305352;28;20064;-86
2021/09/06 11:57:25;;;;;;;3.35;2.50;;;;;;;23.21;36.30;100906.09;6289060;28;20063;-87
2021/09/06 12:00:26;;;;;;;4.88;2.60;;;;;;;23.11;35.09;100906.19;6291467;28;20474;-86
2021/09/06 12:03:27;;;;;;;4.63;2.63;;;;;;;22.99;33.26;100907.38;6292389;28;20058;-85
2021/09/06 12:06:28;;;;;;;4.47;2.40;;;;;;;22.89;35.25;100913.59;6275446;28;20039;-85
2021/09/06 12:09:29;;;;;;;3.60;2.50;;;;;;;22.70;34.43;100901.31;6275422;28;20036;-86
2021/09/06 12:12:29;;;;;;;4.17;2.47;;;;;;;22.69;34.74;100902.31;6311574;28;20036;-86
2021/09/06 12:15:33;;;;;;;4.47;2.53;;;;;;;22.82;36.33;100899.25;6292729;28;20446;-86
2021/09/06 12:18:46;;;;;;;3.58;2.45;;;;;;;22.65;35.83;100905.41;6295889;28;20094;-85
2021/09/06 12:21:49;;;;;;;6.03;2.80;;;;;;;22.82;37.53;100898.44;6274461;28;20066;-85
2021/09/06 12:24:53;;;;;;;5.68;2.72;;;;;;;22.77;35.28;100898.03;6292210;28;20482;-85
2021/09/06 12:28:08;;;;;;;4.15;2.65;;;;;;;22.61;37.98;100901.38;6285547;28;20452;-84
2021/09/06 12:31:09;;;;;;;5.72;2.53;;;;;;;22.74;35.66;100896.53;6290422;28;20044;-84
2021/09/06 12:34:13;;;;;;;6.63;2.50;;;;;;;22.70;37.72;100895.16;6274750;28;20115;-85
2021/09/06 12:37:15;;;;;;;5.72;2.75;;;;;;;22.93;41.16;100892.84;6262949;28;20498;-85
2021/09/06 12:40:16;;;;;;;5.13;2.63;;;;;;;22.92;36.22;100877.91;6296071;28;20252;-85
2021/09/06 12:43:17;;;;;;;6.50;2.75;;;;;;;22.70;35.05;100884.53;6291235;28;20052;-83
2021/09/06 12:46:18;;;;;;;5.17;2.50;;;;;;;22.72;38.85;100883.38;6260554;28;20036;-85
2021/09/06 12:49:19;;;;;;;7.57;2.60;;;;;;;22.69;36.65;100886.34;6300444;28;20773;-84
2021/09/06 12:52:20;;;;;;;5.35;2.47;;;;;;;22.74;35.87;100877.91;6283201;28;20406;-84
2021/09/06 12:55:21;;;;;;;3.90;2.50;;;;;;;22.75;34.87;100876.91;6246639;28;20033;-85
2021/09/06 12:58:22;;;;;;;4.13;2.45;;;;;;;22.66;32.33;100877.84;6298672;28;20536;-86
2021/09/06 13:01:23;;;;;;;7.78;3.38;;;;;;;22.57;33.11;100879.59;6290055;28;20038;-84
2021/09/06 13:04:23;;;;;;;6.43;3.10;;;;;;;22.55;34.82;100876.25;6304256;28;20037;-85
2021/09/06 13:07:24;;;;;;;3.30;2.30;;;;;;;22.54;36.35;100877.22;6304796;28;20044;-86
2021/09/06 13:10:27;;;;;;;3.53;2.60;;;;;;;22.65;38.36;100878.81;6296435;28;20041;-85
2021/09/06 13:13:28;;;;;;;5.68;2.50;;;;;;;22.47;35.28;100874.34;6279177;28;20040;-85
2021/09/06 13:16:29;;;;;;;4.07;2.80;;;;;;;22.52;40.51;100874.69;6278709;28;20138;-84
2021/09/06 13:19:30;;;;;;;10.32;2.88;;;;;;;22.62;36.72;100874.63;6261049;28;20280;-86
2021/09/06 13:22:31;;;;;;;5.00;2.30;;;;;;;22.42;34.73;100865.94;6260877;28;20384;-86
2021/09/06 13:25:32;;;;;;;4.07;2.55;;;;;;;22.32;37.21;100873.16;6244290;28;20036;-85
2021/09/06 13:28:33;;;;;;;3.23;2.70;;;;;;;22.20;34.45;100869.03;6261018;28;20098;-85
2021/09/06 13:31:34;;;;;;;5.07;2.50;;;;;;;22.18;34.24;100868.34;6279596;28;20377;-83
2021/09/06 13:34:35;;;;;;;5.87;2.60;;;;;;;21.99;34.57;100872.78;6261267;28;20044;-85
2021/09/06 13:37:36;;;;;;;3.30;2.00;;;;;;;21.95;33.97;100876.72;6295612;28;20055;-85
2021/09/06 13:40:37;;;;;;;5.20;2.42;;;;;;;21.87;34.95;100876.63;6296687;28;20381;-84
2021/09/06 13:43:38;;;;;;;4.85;2.20;;;;;;;21.78;36.87;100873.00;6272167;28;20053;-85
2021/09/06 13:46:39;;;;;;;3.70;2.35;;;;;;;21.62;33.76;100870.13;6270373;28;20133;-83
2021/09/06 13:49:39;;;;;;;5.00;2.40;;;;;;;21.41;34.20;100867.66;6252475;28;20128;-84
2021/09/06 13:52:40;;;;;;;9.53;2.77;;;;;;;21.49;37.91;100865.16;6268966;28;20044;-84
2021/09/06 13:55:41;;;;;;;5.23;2.20;;;;;;;21.60;35.75;100872.97;6281958;28;20115;-85
2021/09/06 13:58:42;;;;;;;5.65;2.50;;;;;;;21.58;36.62;100866.09;6294191;28;20047;-84
2021/09/06 14:01:43;;;;;;;3.97;2.53;;;;;;;21.53;36.64;100863.88;6295456;28;20044;-86
2021/09/06 14:04:44;;;;;;;5.93;2.83;;;;;;;21.52;38.70;100864.88;6277680;28;20037;-85
2021/09/06 14:07:45;;;;;;;3.73;2.30;;;;;;;21.44;35.50;100864.78;6310607;28;20372;-84